createdAt,value
2018-12-17T00:01:04.627Z,2.50
2018-12-17T00:03:32.777Z,2.40
2018-12-17T00:06:01.035Z,2.40
2018-12-17T00:08:32.056Z,2.40
2018-12-17T00:10:59.571Z,2.40
2018-12-17T00:13:27.673Z,2.40
2018-12-17T00:15:55.776Z,2.40
2018-12-17T00:18:24.001Z,2.40
2018-12-17T00:20:52.128Z,2.40
2018-12-17T00:23:20.224Z,2.40
2018-12-17T00:25:48.404Z,2.40
2018-12-17T00:28:16.607Z,2.40
2018-12-17T00:30:44.816Z,2.40
2018-12-17T00:33:13.067Z,2.40
2018-12-17T00:35:41.262Z,2.40
2018-12-17T00:38:09.448Z,2.50
2018-12-17T00:40:37.655Z,2.50
2018-12-17T00:43:05.932Z,2.40
2018-12-17T00:45:34.105Z,2.40
2018-12-17T00:48:02.302Z,2.40
2018-12-17T00:50:30.539Z,2.40
2018-12-17T00:52:58.676Z,2.40
2018-12-17T00:55:26.855Z,2.40
2018-12-17T00:57:55.052Z,2.40
2018-12-17T01:00:23.224Z,2.40
2018-12-17T01:02:51.365Z,2.40
2018-12-17T01:05:19.504Z,2.40
2018-12-17T01:07:47.705Z,2.40
2018-12-17T01:10:15.868Z,2.40
2018-12-17T01:12:44.067Z,2.40
2018-12-17T01:15:12.151Z,2.40
2018-12-17T01:17:40.332Z,2.40
2018-12-17T01:20:08.524Z,2.40
2018-12-17T01:22:36.713Z,2.40
2018-12-17T01:25:04.966Z,2.40
2018-12-17T01:27:33.085Z,2.40
2018-12-17T01:30:01.276Z,2.50
2018-12-17T01:32:29.456Z,2.50
2018-12-17T01:34:57.644Z,2.50
2018-12-17T01:37:25.820Z,2.50
2018-12-17T01:39:53.915Z,2.50
2018-12-17T01:42:22.108Z,2.50
2018-12-17T01:44:50.292Z,2.50
2018-12-17T01:47:18.476Z,2.50
2018-12-17T01:49:46.660Z,2.50
2018-12-17T01:52:14.839Z,2.50
2018-12-17T01:54:42.925Z,2.50
2018-12-17T01:57:11.007Z,2.50
2018-12-17T01:59:39.104Z,2.50
2018-12-17T02:02:07.285Z,2.50
2018-12-17T02:04:35.549Z,2.50
2018-12-17T02:07:03.652Z,2.50
2018-12-17T02:09:31.746Z,2.50
2018-12-17T02:11:59.919Z,2.50
2018-12-17T02:14:28.087Z,2.50
2018-12-17T02:16:56.296Z,2.50
2018-12-17T02:19:24.390Z,2.50
2018-12-17T02:21:52.578Z,2.50
2018-12-17T02:24:20.786Z,2.60
2018-12-17T02:26:48.957Z,2.60
2018-12-17T02:29:17.154Z,2.60
2018-12-17T02:31:45.331Z,2.60
2018-12-17T02:34:13.511Z,2.60
2018-12-17T02:36:41.698Z,2.60
2018-12-17T02:39:09.894Z,2.60
2018-12-17T02:41:38.075Z,2.60
2018-12-17T02:44:06.547Z,2.60
2018-12-17T02:46:34.660Z,2.60
2018-12-17T02:49:02.862Z,2.60
2018-12-17T02:51:31.104Z,2.50
2018-12-17T02:53:59.217Z,2.50
2018-12-17T02:56:27.399Z,2.50
2018-12-17T02:58:55.601Z,2.50
2018-12-17T03:01:23.769Z,2.50
2018-12-17T03:03:51.960Z,2.50
2018-12-17T03:06:20.158Z,2.50
2018-12-17T03:08:48.348Z,2.50
2018-12-17T03:11:16.537Z,2.50
2018-12-17T03:13:44.700Z,2.50
2018-12-17T03:16:12.804Z,2.50
2018-12-17T03:18:40.979Z,2.50
2018-12-17T03:21:09.171Z,2.50
2018-12-17T03:23:37.454Z,2.50
2018-12-17T03:26:05.577Z,2.50
2018-12-17T03:28:33.721Z,2.50
2018-12-17T03:31:01.817Z,2.50
2018-12-17T03:33:30.007Z,2.50
2018-12-17T03:35:58.195Z,2.50
2018-12-17T03:38:26.368Z,2.50
2018-12-17T03:40:54.659Z,2.50
2018-12-17T03:43:22.853Z,2.50
2018-12-17T03:45:51.043Z,2.50
2018-12-17T03:48:19.225Z,2.50
2018-12-17T03:50:47.418Z,2.50
2018-12-17T03:53:15.593Z,2.50
2018-12-17T03:55:43.792Z,2.60
2018-12-17T03:58:11.964Z,2.60
2018-12-17T04:00:40.063Z,2.60
2018-12-17T04:03:08.246Z,2.60
2018-12-17T04:05:36.456Z,2.60
2018-12-17T04:08:04.719Z,2.60
2018-12-17T04:10:32.996Z,2.60
2018-12-17T04:13:01.091Z,2.60
2018-12-17T04:15:29.277Z,2.60
2018-12-17T04:17:57.361Z,2.60
2018-12-17T04:20:25.572Z,2.60
2018-12-17T04:22:53.736Z,2.60
2018-12-17T04:25:21.928Z,2.60
2018-12-17T04:27:50.119Z,2.60
2018-12-17T04:30:18.301Z,2.60
2018-12-17T04:32:47.411Z,2.60
2018-12-17T04:35:15.588Z,2.70
2018-12-17T04:37:43.780Z,2.70
2018-12-17T04:40:11.964Z,2.70
2018-12-17T04:42:40.056Z,2.70
2018-12-17T04:45:08.236Z,2.70
2018-12-17T04:47:36.439Z,2.70
2018-12-17T04:50:04.713Z,2.60
2018-12-17T04:52:32.808Z,2.60
2018-12-17T04:55:00.987Z,2.60
2018-12-17T04:57:29.079Z,2.60
2018-12-17T04:59:57.279Z,2.60
2018-12-17T05:02:25.928Z,2.60
2018-12-17T05:04:54.160Z,2.60
2018-12-17T05:07:22.345Z,2.60
2018-12-17T05:09:50.525Z,2.60
2018-12-17T05:12:18.724Z,2.60
2018-12-17T05:14:46.891Z,2.60
2018-12-17T05:17:14.988Z,2.60
2018-12-17T05:19:43.068Z,2.60
2018-12-17T05:22:11.258Z,2.60
2018-12-17T05:24:39.435Z,2.60
2018-12-17T05:27:07.616Z,2.60
2018-12-17T05:29:35.816Z,2.70
2018-12-17T05:32:03.993Z,2.70
2018-12-17T05:34:32.189Z,2.70
2018-12-17T05:37:00.365Z,2.70
2018-12-17T05:39:28.565Z,2.70
2018-12-17T05:41:56.741Z,2.70
2018-12-17T05:44:24.944Z,2.70
2018-12-17T05:46:53.116Z,2.70
2018-12-17T05:49:21.309Z,2.70
2018-12-17T05:51:49.485Z,2.70
2018-12-17T05:54:17.584Z,2.70
2018-12-17T05:56:45.761Z,2.70
2018-12-17T05:59:14.144Z,2.70
2018-12-17T06:01:42.245Z,2.80
2018-12-17T06:04:10.432Z,2.70
2018-12-17T06:06:38.608Z,2.70
2018-12-17T06:09:10.052Z,2.80
2018-12-17T06:11:38.532Z,2.80
2018-12-17T06:14:06.625Z,2.80
2018-12-17T06:16:34.721Z,2.80
2018-12-17T06:19:02.935Z,2.80
2018-12-17T06:21:31.116Z,2.80
2018-12-17T06:23:59.316Z,2.80
2018-12-17T06:26:27.484Z,2.80
2018-12-17T06:28:55.684Z,2.80
2018-12-17T06:31:23.864Z,2.80
2018-12-17T06:33:52.072Z,2.80
2018-12-17T06:36:20.240Z,2.80
2018-12-17T06:38:48.419Z,2.80
2018-12-17T06:41:16.616Z,2.80
2018-12-17T06:43:44.808Z,2.80
2018-12-17T06:46:12.987Z,2.90
2018-12-17T06:48:41.165Z,2.90
2018-12-17T06:51:09.259Z,2.90
2018-12-17T06:53:37.442Z,2.90
2018-12-17T06:56:05.638Z,2.90
2018-12-17T06:58:33.888Z,2.90
2018-12-17T07:01:02.012Z,2.90
2018-12-17T07:03:30.197Z,2.90
2018-12-17T07:05:58.437Z,2.90
2018-12-17T07:08:26.565Z,2.90
2018-12-17T07:10:54.764Z,2.90
2018-12-17T07:13:22.936Z,2.80
2018-12-17T07:15:51.139Z,2.90
2018-12-17T07:18:19.317Z,2.90
2018-12-17T07:20:47.403Z,2.90
2018-12-17T07:23:15.579Z,2.90
2018-12-17T07:25:43.776Z,2.90
2018-12-17T07:28:11.956Z,2.90
2018-12-17T07:30:40.148Z,2.90
2018-12-17T07:33:08.320Z,2.90
2018-12-17T07:35:36.529Z,2.90
2018-12-17T07:38:04.711Z,2.90
2018-12-17T07:40:32.908Z,2.90
2018-12-17T07:43:01.087Z,2.90
2018-12-17T07:45:29.283Z,2.90
2018-12-17T07:47:57.455Z,2.90
2018-12-17T07:50:25.636Z,3.00
2018-12-17T07:52:53.839Z,3.00
2018-12-17T07:55:22.014Z,3.00
2018-12-17T07:57:50.204Z,3.00
2018-12-17T08:00:18.380Z,3.10
2018-12-17T08:02:46.468Z,3.10
2018-12-17T08:05:14.677Z,3.10
2018-12-17T08:07:44.213Z,3.10
2018-12-17T08:10:12.585Z,3.10
2018-12-17T08:12:40.759Z,3.20
2018-12-17T08:15:08.952Z,3.20
2018-12-17T08:17:37.044Z,3.20
2018-12-17T08:20:05.550Z,3.30
2018-12-17T08:22:33.790Z,3.40
2018-12-17T08:25:02.306Z,3.40
2018-12-17T08:27:30.489Z,3.40
2018-12-17T08:30:03.915Z,3.50
2018-12-17T08:32:28.820Z,3.50
2018-12-17T08:34:56.994Z,3.40
2018-12-17T08:37:25.194Z,3.40
2018-12-17T08:39:53.368Z,3.50
2018-12-17T08:42:21.559Z,3.50
2018-12-17T08:44:49.743Z,3.50
2018-12-17T08:47:17.939Z,3.40
2018-12-17T08:49:46.122Z,3.40
2018-12-17T08:52:14.309Z,3.40
2018-12-17T08:54:42.541Z,3.50
2018-12-17T08:57:10.680Z,3.40
2018-12-17T08:59:38.870Z,3.40
2018-12-17T09:02:07.056Z,3.40
2018-12-17T09:04:35.236Z,3.50
2018-12-17T09:07:03.432Z,3.50
2018-12-17T09:09:31.620Z,3.50
2018-12-17T09:11:59.801Z,3.50
2018-12-17T09:14:27.992Z,3.50
2018-12-17T09:16:56.085Z,3.50
2018-12-17T09:19:24.260Z,3.40
2018-12-17T09:21:52.368Z,3.50
2018-12-17T09:24:20.540Z,3.50
2018-12-17T09:26:48.724Z,3.50
2018-12-17T09:29:16.921Z,3.50
2018-12-17T09:31:45.119Z,3.60
2018-12-17T09:34:13.276Z,3.60
2018-12-17T09:36:41.464Z,3.60
2018-12-17T09:39:09.660Z,3.70
2018-12-17T09:41:37.836Z,3.70
2018-12-17T09:44:06.025Z,3.70
2018-12-17T09:46:34.588Z,3.70
2018-12-17T09:49:02.783Z,3.70
2018-12-17T09:51:30.891Z,3.70
2018-12-17T09:53:59.104Z,3.70
2018-12-17T09:56:27.260Z,3.70
2018-12-17T09:58:55.429Z,3.70
2018-12-17T10:01:23.630Z,3.70
2018-12-17T10:03:51.844Z,3.80
2018-12-17T10:06:20.016Z,3.80
2018-12-17T10:08:48.205Z,3.80
2018-12-17T10:11:16.532Z,3.90
2018-12-17T10:13:44.689Z,3.90
2018-12-17T10:16:12.863Z,3.90
2018-12-17T10:18:41.062Z,4.00
2018-12-17T10:21:09.461Z,4.00
2018-12-17T10:23:37.904Z,4.10
2018-12-17T10:26:06.101Z,4.10
2018-12-17T10:28:34.220Z,4.10
2018-12-17T10:31:02.403Z,4.20
2018-12-17T10:33:30.596Z,4.20
2018-12-17T10:35:58.768Z,4.20
2018-12-17T10:38:26.954Z,4.10
2018-12-17T10:40:55.152Z,4.10
2018-12-17T10:43:23.432Z,4.10
2018-12-17T10:45:51.792Z,4.10
2018-12-17T10:48:20.006Z,4.10
2018-12-17T10:50:48.208Z,4.10
2018-12-17T10:53:16.589Z,4.10
2018-12-17T10:55:44.781Z,4.20
2018-12-17T10:58:12.960Z,4.20
2018-12-17T11:00:46.739Z,4.20
2018-12-17T11:03:18.619Z,4.20
2018-12-17T11:05:47.059Z,4.30
2018-12-17T11:08:15.229Z,4.30
2018-12-17T11:10:43.428Z,4.30
2018-12-17T11:13:11.682Z,4.30
2018-12-17T11:15:39.905Z,4.20
2018-12-17T11:18:08.067Z,4.30
2018-12-17T11:20:36.176Z,4.30
2018-12-17T11:23:04.349Z,4.30
2018-12-17T11:25:32.549Z,4.30
2018-12-17T11:28:00.732Z,4.30
2018-12-17T11:30:28.932Z,4.30
2018-12-17T11:32:57.104Z,4.30
2018-12-17T11:35:25.296Z,4.30
2018-12-17T11:37:53.476Z,4.30
2018-12-17T11:40:21.677Z,4.30
2018-12-17T11:42:49.851Z,4.30
2018-12-17T11:45:18.861Z,4.30
2018-12-17T11:47:47.047Z,4.30
2018-12-17T11:50:15.224Z,4.30
2018-12-17T11:52:43.338Z,4.40
2018-12-17T11:55:11.497Z,4.40
2018-12-17T11:58:03.991Z,4.50
2018-12-17T12:00:32.228Z,4.50
2018-12-17T12:03:00.344Z,4.50
2018-12-17T12:05:28.518Z,4.50
2018-12-17T12:07:56.612Z,4.50
2018-12-17T12:10:24.795Z,4.50
2018-12-17T12:12:52.997Z,4.50
2018-12-17T12:15:21.165Z,4.50
2018-12-17T12:17:49.274Z,4.50
2018-12-17T12:20:17.359Z,4.60
2018-12-17T12:22:45.528Z,4.60
2018-12-17T12:25:13.711Z,4.70
2018-12-17T12:27:41.912Z,4.70
2018-12-17T12:30:10.993Z,4.70
2018-12-17T12:32:39.104Z,4.70
2018-12-17T12:35:08.420Z,4.70
2018-12-17T12:37:36.603Z,4.70
2018-12-17T12:40:05.038Z,4.70
2018-12-17T12:42:33.171Z,4.70
2018-12-17T12:45:01.343Z,4.70
2018-12-17T12:47:29.464Z,4.80
2018-12-17T12:49:57.620Z,4.80
2018-12-17T12:52:25.865Z,4.80
2018-12-17T12:54:54.003Z,4.80
2018-12-17T12:57:22.201Z,4.80
2018-12-17T12:59:50.379Z,4.70
2018-12-17T13:02:18.567Z,4.70
2018-12-17T13:04:46.771Z,4.70
2018-12-17T13:07:14.936Z,4.70
2018-12-17T13:09:43.120Z,4.70
2018-12-17T13:12:11.320Z,4.80
2018-12-17T13:14:39.489Z,4.80
2018-12-17T13:17:13.181Z,4.80
2018-12-17T13:19:41.320Z,4.80
2018-12-17T13:22:09.525Z,4.80
2018-12-17T13:24:37.776Z,4.80
2018-12-17T13:27:05.965Z,4.80
2018-12-17T13:29:34.180Z,4.80
2018-12-17T13:32:02.336Z,4.80
2018-12-17T13:34:30.538Z,4.90
2018-12-17T13:36:58.699Z,4.90
2018-12-17T13:39:26.793Z,4.90
2018-12-17T13:41:54.980Z,4.90
2018-12-17T13:44:23.231Z,4.90
2018-12-17T13:46:51.364Z,4.90
2018-12-17T13:49:19.589Z,5.00
2018-12-17T13:51:52.992Z,5.00
2018-12-17T13:54:21.144Z,5.00
2018-12-17T13:56:49.321Z,5.00
2018-12-17T13:59:17.521Z,5.00
2018-12-17T14:01:51.390Z,5.10
2018-12-17T14:04:15.841Z,5.10
2018-12-17T14:06:44.012Z,5.10
2018-12-17T14:09:12.212Z,5.10
2018-12-17T14:11:40.392Z,5.10
2018-12-17T14:14:08.588Z,5.00
2018-12-17T14:16:42.092Z,5.00
2018-12-17T14:19:15.596Z,5.10
2018-12-17T14:21:49.282Z,5.10
2018-12-17T14:24:17.418Z,5.10
2018-12-17T14:26:45.636Z,5.10
2018-12-17T14:29:13.785Z,5.10
2018-12-17T14:31:41.964Z,5.10
2018-12-17T14:34:10.172Z,5.10
2018-12-17T14:36:38.343Z,5.10
2018-12-17T14:39:07.740Z,5.10
2018-12-17T14:41:35.852Z,5.10
2018-12-17T14:44:09.920Z,5.10
2018-12-17T14:46:43.900Z,5.10
2018-12-17T14:49:12.088Z,5.10
2018-12-17T14:51:40.260Z,5.10
2018-12-17T14:54:08.457Z,5.10
2018-12-17T14:56:36.693Z,5.10
2018-12-17T14:59:04.936Z,5.10
2018-12-17T15:01:36.008Z,5.10
2018-12-17T15:04:03.272Z,5.20
2018-12-17T15:06:31.430Z,5.10
2018-12-17T15:08:59.616Z,5.10
2018-12-17T15:11:27.704Z,5.10
2018-12-17T15:13:55.895Z,5.10
2018-12-17T15:16:24.088Z,5.10
2018-12-17T15:18:52.168Z,5.10
2018-12-17T15:21:20.360Z,5.10
2018-12-17T15:23:48.468Z,5.10
2018-12-17T15:26:16.751Z,5.10
2018-12-17T15:28:44.925Z,5.10
2018-12-17T15:31:13.128Z,5.10
2018-12-17T15:33:41.285Z,5.10
2018-12-17T15:36:09.475Z,5.00
2018-12-17T15:38:37.657Z,5.00
2018-12-17T15:41:05.881Z,4.90
2018-12-17T15:43:34.035Z,4.90
2018-12-17T15:46:02.233Z,4.90
2018-12-17T15:48:30.407Z,4.90
2018-12-17T15:50:58.628Z,4.80
2018-12-17T15:53:26.780Z,4.80
2018-12-17T15:55:54.981Z,4.80
2018-12-17T15:58:23.149Z,4.70
2018-12-17T16:00:51.340Z,4.70
2018-12-17T16:03:19.528Z,4.60
2018-12-17T16:05:47.616Z,4.60
2018-12-17T16:08:15.792Z,4.60
2018-12-17T16:10:44.917Z,4.60
2018-12-17T16:13:13.020Z,4.50
2018-12-17T16:15:41.197Z,4.50
2018-12-17T16:18:09.400Z,4.50
2018-12-17T16:20:37.608Z,4.60
2018-12-17T16:23:05.759Z,4.60
2018-12-17T16:25:33.959Z,4.60
2018-12-17T16:28:02.228Z,4.60
2018-12-17T16:30:30.399Z,4.60
2018-12-17T16:32:58.595Z,4.60
2018-12-17T16:35:26.780Z,4.50
2018-12-17T16:37:54.972Z,4.50
2018-12-17T16:40:23.223Z,4.50
2018-12-17T16:42:51.460Z,4.50
2018-12-17T16:45:19.709Z,4.50
2018-12-17T16:47:47.828Z,4.50
2018-12-17T16:50:16.004Z,4.50
2018-12-17T16:52:44.196Z,4.50
2018-12-17T16:55:12.768Z,4.50
2018-12-17T16:57:40.868Z,4.50
2018-12-17T17:00:09.713Z,4.50
2018-12-17T17:02:38.042Z,4.50
2018-12-17T17:05:06.144Z,4.50
2018-12-17T17:07:34.336Z,4.50
2018-12-17T17:10:06.727Z,4.50
2018-12-17T17:12:34.976Z,4.50
2018-12-17T17:15:03.239Z,4.50
2018-12-17T17:17:31.395Z,4.50
2018-12-17T17:19:59.503Z,4.40
2018-12-17T17:22:27.652Z,4.40
2018-12-17T17:24:55.740Z,4.50
2018-12-17T17:27:23.920Z,4.50
2018-12-17T17:29:52.121Z,4.50
2018-12-17T17:32:20.327Z,4.50
2018-12-17T17:34:48.484Z,4.50
2018-12-17T17:37:16.776Z,4.40
2018-12-17T17:39:46.439Z,4.40
2018-12-17T17:42:14.901Z,4.30
2018-12-17T17:44:43.093Z,4.30
2018-12-17T17:47:11.284Z,4.30
2018-12-17T17:49:39.465Z,4.30
2018-12-17T17:52:07.634Z,4.30
2018-12-17T17:54:35.827Z,4.20
2018-12-17T17:57:04.036Z,4.30
2018-12-17T17:59:32.224Z,4.20
2018-12-17T18:02:00.388Z,4.20
2018-12-17T18:04:28.584Z,4.20
2018-12-17T18:06:56.772Z,4.20
2018-12-17T18:09:24.956Z,4.10
2018-12-17T18:11:53.134Z,4.10
2018-12-17T18:14:21.323Z,4.10
2018-12-17T18:16:49.508Z,4.00
2018-12-17T18:19:17.699Z,4.00
2018-12-17T18:21:45.887Z,4.00
2018-12-17T18:24:14.104Z,4.10
2018-12-17T18:26:42.252Z,4.00
2018-12-17T18:29:10.441Z,4.10
2018-12-17T18:31:38.639Z,4.10
2018-12-17T18:34:06.903Z,4.00
2018-12-17T18:36:35.007Z,4.00
2018-12-17T18:39:03.203Z,4.00
2018-12-17T18:41:31.384Z,4.00
2018-12-17T18:43:59.564Z,4.00
2018-12-17T18:46:27.750Z,3.90
2018-12-17T18:48:55.935Z,3.90
2018-12-17T18:51:24.128Z,3.90
2018-12-17T18:53:52.280Z,3.90
2018-12-17T18:56:20.405Z,3.90
2018-12-17T18:58:48.580Z,3.90
2018-12-17T19:01:16.873Z,3.90
2018-12-17T19:03:45.052Z,3.90
2018-12-17T19:06:13.277Z,3.90
2018-12-17T19:08:41.428Z,3.90
2018-12-17T19:11:09.527Z,3.90
2018-12-17T19:13:37.695Z,3.80
2018-12-17T19:16:06.003Z,3.80
2018-12-17T19:18:34.180Z,3.90
2018-12-17T19:21:02.368Z,3.90
2018-12-17T19:23:30.553Z,3.90
2018-12-17T19:25:58.808Z,3.90
2018-12-17T19:28:26.929Z,3.90
2018-12-17T19:30:55.108Z,3.90
2018-12-17T19:33:23.304Z,4.00
2018-12-17T19:35:51.487Z,4.00
2018-12-17T19:38:19.684Z,4.00
2018-12-17T19:40:47.868Z,4.00
2018-12-17T19:43:16.053Z,4.00
2018-12-17T19:45:44.233Z,4.00
2018-12-17T19:48:12.427Z,4.10
2018-12-17T19:50:40.611Z,4.10
2018-12-17T19:53:08.849Z,4.10
2018-12-17T19:55:36.985Z,4.10
2018-12-17T19:58:05.179Z,4.00
2018-12-17T20:00:33.356Z,4.00
2018-12-17T20:03:01.823Z,4.00
2018-12-17T20:05:29.943Z,4.10
2018-12-17T20:07:58.139Z,4.10
2018-12-17T20:10:26.942Z,4.10
2018-12-17T20:12:55.248Z,4.10
2018-12-17T20:15:23.408Z,4.20
2018-12-17T20:17:51.595Z,4.20
2018-12-17T20:20:19.695Z,4.20
2018-12-17T20:22:47.880Z,4.20
2018-12-17T20:25:16.033Z,4.30
2018-12-17T20:27:44.163Z,4.30
2018-12-17T20:30:12.909Z,4.30
2018-12-17T20:32:41.027Z,4.30
2018-12-17T20:35:09.296Z,4.30
2018-12-17T20:37:37.416Z,4.40
2018-12-17T20:40:06.988Z,4.40
2018-12-17T20:42:35.272Z,4.40
2018-12-17T20:45:03.581Z,4.40
2018-12-17T20:47:31.676Z,4.40
2018-12-17T20:50:00.033Z,4.40
2018-12-17T20:52:28.160Z,4.40
2018-12-17T20:54:56.343Z,4.40
2018-12-17T20:57:24.525Z,4.40
2018-12-17T20:59:52.735Z,4.50
2018-12-17T21:02:20.896Z,4.50
2018-12-17T21:04:49.098Z,4.50
2018-12-17T21:07:17.276Z,4.50
2018-12-17T21:09:45.461Z,4.40
2018-12-17T21:12:13.644Z,4.40
2018-12-17T21:14:41.842Z,4.40
2018-12-17T21:17:10.016Z,4.40
2018-12-17T21:19:38.220Z,4.40
2018-12-17T21:22:09.766Z,4.30
2018-12-17T21:24:37.882Z,4.30
2018-12-17T21:27:06.044Z,4.30
2018-12-17T21:29:34.235Z,4.30
2018-12-17T21:32:02.440Z,4.20
2018-12-17T21:34:30.618Z,4.20
2018-12-17T21:36:58.790Z,4.20
2018-12-17T21:39:26.999Z,4.10
2018-12-17T21:41:55.167Z,4.00
2018-12-17T21:44:23.369Z,4.00
2018-12-17T21:46:52.849Z,3.90
2018-12-17T21:49:21.381Z,3.90
2018-12-17T21:51:49.556Z,3.80
2018-12-17T21:54:17.761Z,3.80
2018-12-17T21:56:45.936Z,3.80
2018-12-17T21:59:14.129Z,3.80
2018-12-17T22:01:42.308Z,3.70
2018-12-17T22:04:10.503Z,3.70
2018-12-17T22:06:38.683Z,3.70
2018-12-17T22:09:07.531Z,3.60
2018-12-17T22:11:36.059Z,3.60
2018-12-17T22:14:04.156Z,3.60
2018-12-17T22:16:32.355Z,3.60
2018-12-17T22:19:00.528Z,3.60
2018-12-17T22:21:28.624Z,3.60
2018-12-17T22:23:56.805Z,3.60
2018-12-17T22:26:29.226Z,3.60
2018-12-17T22:28:55.121Z,3.60
2018-12-17T22:31:23.327Z,3.60
2018-12-17T22:33:51.496Z,3.60
2018-12-17T22:36:19.694Z,3.60
2018-12-17T22:38:47.876Z,3.60
2018-12-17T22:41:16.061Z,3.60
2018-12-17T22:43:44.241Z,3.60
2018-12-17T22:46:12.561Z,3.60
2018-12-17T22:48:40.723Z,3.60
2018-12-17T22:51:08.920Z,3.60
2018-12-17T22:53:37.140Z,3.60
2018-12-17T22:56:05.334Z,3.60
2018-12-17T22:58:33.565Z,3.60
2018-12-17T23:01:01.794Z,3.70
2018-12-17T23:03:30.040Z,3.70
2018-12-17T23:05:58.233Z,3.70
2018-12-17T23:08:26.424Z,3.70
2018-12-17T23:11:06.208Z,3.80
2018-12-17T23:13:45.824Z,3.80
2018-12-17T23:16:25.512Z,3.80
2018-12-17T23:18:52.754Z,3.80
2018-12-17T23:21:20.838Z,3.80
2018-12-17T23:23:49.038Z,3.90
2018-12-17T23:26:17.211Z,3.90
2018-12-17T23:28:45.405Z,3.90
2018-12-17T23:31:13.585Z,3.90
2018-12-17T23:33:41.785Z,3.90
2018-12-17T23:36:09.960Z,4.00
2018-12-17T23:38:38.159Z,4.00
2018-12-17T23:41:06.334Z,4.00
2018-12-17T23:43:34.524Z,4.00
2018-12-17T23:46:02.807Z,4.00
2018-12-17T23:48:31.005Z,4.00
2018-12-17T23:50:59.180Z,4.00
2018-12-17T23:53:27.376Z,4.00
2018-12-17T23:55:55.564Z,4.00
2018-12-17T23:58:23.744Z,4.00
